Time,TemperatureF,DewpointF,PressureIn,WindDirection,WindDirectionDegrees,WindSpeedMPH,WindSpeedGustMPH,Humidity,HourlyPrecipIn,Conditions,Clouds,dailyrainin,SoftwareType,DateUTC
2013-02-05 00:03:00,38.0,22.0,29.90,SSE,161,1.0,7.0,52,0.00,,,0.00,,2013-02-05 05:03:00,
2013-02-05 00:11:00,38.0,22.0,29.90,SSE,161,1.0,7.0,52,0.00,,,0.00,,2013-02-05 05:11:00,
2013-02-05 00:22:00,39.0,23.0,29.89,West,262,1.0,6.0,52,0.00,,,0.00,,2013-02-05 05:22:00,
2013-02-05 00:32:00,40.0,21.0,29.89,SSW,195,2.0,8.0,47,0.00,,,0.00,,2013-02-05 05:32:00,
2013-02-05 00:42:00,40.0,21.0,29.89,SSW,195,2.0,8.0,47,0.00,,,0.00,,2013-02-05 05:42:00,
2013-02-05 00:52:00,41.0,21.0,29.88,South,190,4.0,7.0,45,0.00,,,0.00,,2013-02-05 05:52:00,
2013-02-05 01:02:00,42.0,21.0,29.88,SSW,201,3.0,8.0,43,0.00,,,0.00,,2013-02-05 06:02:00,
2013-02-05 01:21:00,42.0,21.0,29.88,SSE,167,3.0,9.0,42,0.00,,,0.00,,2013-02-05 06:21:00,
2013-02-05 01:32:00,42.0,21.0,29.87,South,182,3.0,10.0,42,0.00,,,0.00,,2013-02-05 06:32:00,
2013-02-05 01:52:00,42.0,20.0,29.86,South,189,3.0,11.0,41,0.00,,,0.00,,2013-02-05 06:52:00,
2013-02-05 02:01:00,38.0,22.0,29.87,SSW,209,1.0,2.0,51,0.00,,,0.00,,2013-02-05 07:01:00,
2013-02-05 02:11:00,38.0,22.0,29.87,SSW,209,1.0,2.0,51,0.00,,,0.00,,2013-02-05 07:11:00,
2013-02-05 02:22:00,36.0,21.0,29.87,SSW,209,1.0,3.0,54,0.00,,,0.00,,2013-02-05 07:22:00,
2013-02-05 02:32:00,34.0,21.0,29.87,SSW,209,0.0,2.0,58,0.00,,,0.00,,2013-02-05 07:32:00,
2013-02-05 02:42:00,34.0,21.0,29.87,SSW,209,0.0,2.0,58,0.00,,,0.00,,2013-02-05 07:42:00,
2013-02-05 02:52:00,33.0,21.0,29.87,SSW,209,1.0,2.0,60,0.00,,,0.00,,2013-02-05 07:52:00,
2013-02-05 03:01:00,32.0,20.0,29.86,SSW,209,0.0,2.0,62,0.00,,,0.00,,2013-02-05 08:01:00,
2013-02-05 03:11:00,32.0,20.0,29.86,SSW,209,0.0,2.0,62,0.00,,,0.00,,2013-02-05 08:11:00,
2013-02-05 03:21:00,32.0,21.0,29.87,SSW,209,1.0,2.0,64,0.00,,,0.00,,2013-02-05 08:21:00,
2013-02-05 03:32:00,31.0,21.0,29.87,SSW,209,1.0,3.0,66,0.00,,,0.00,,2013-02-05 08:32:00,
2013-02-05 03:42:00,31.0,21.0,29.87,SSW,209,1.0,3.0,66,0.00,,,0.00,,2013-02-05 08:42:00,
2013-02-05 03:52:00,31.0,21.0,29.86,SE,129,1.0,3.0,66,0.00,,,0.00,,2013-02-05 08:52:00,
2013-02-05 04:02:00,30.0,21.0,29.85,SE,129,2.0,4.0,68,0.00,,,0.00,,2013-02-05 09:02:00,
2013-02-05 04:11:00,30.0,21.0,29.85,SE,129,0.0,3.0,68,0.00,,,0.00,,2013-02-05 09:11:00,
2013-02-05 04:22:00,30.0,21.0,29.85,SE,129,0.0,3.0,68,0.00,,,0.00,,2013-02-05 09:22:00,
2013-02-05 04:32:00,30.0,21.0,29.85,ENE,61,0.0,5.0,69,0.00,,,0.00,,2013-02-05 09:32:00,
2013-02-05 04:42:00,30.0,21.0,29.85,ENE,61,0.0,5.0,69,0.00,,,0.00,,2013-02-05 09:42:00,
2013-02-05 04:51:00,30.0,21.0,29.86,East,101,1.0,5.0,69,0.00,,,0.00,,2013-02-05 09:51:00,
2013-02-05 05:02:00,30.0,21.0,29.86,SSW,213,2.0,6.0,70,0.00,,,0.00,,2013-02-05 10:02:00,
2013-02-05 05:11:00,31.0,22.0,29.86,ESE,108,3.0,7.0,70,0.00,,,0.00,,2013-02-05 10:11:00,
2013-02-05 05:21:00,31.0,22.0,29.86,ESE,108,3.0,7.0,70,0.00,,,0.00,,2013-02-05 10:21:00,
2013-02-05 05:32:00,31.0,22.0,29.86,NNW,336,4.0,6.0,70,0.00,,,0.00,,2013-02-05 10:32:00,
2013-02-05 05:42:00,31.0,22.0,29.86,NNW,336,4.0,6.0,70,0.00,,,0.00,,2013-02-05 10:42:00,
2013-02-05 05:52:00,32.0,23.0,29.86,NE,45,0.0,6.0,70,0.00,,,0.00,,2013-02-05 10:52:00,
2013-02-05 06:01:00,32.0,23.0,29.86,NW,324,1.0,5.0,68,0.00,,,0.00,,2013-02-05 11:01:00,
2013-02-05 06:11:00,32.0,23.0,29.86,NW,324,1.0,5.0,68,0.00,,,0.00,,2013-02-05 11:11:00,
2013-02-05 06:22:00,32.0,22.0,29.86,SSE,164,0.0,4.0,67,0.00,,,0.00,,2013-02-05 11:22:00,
2013-02-05 06:32:00,32.0,23.0,29.87,South,182,1.0,6.0,68,0.00,,,0.00,,2013-02-05 11:32:00,
2013-02-05 06:42:00,32.0,23.0,29.87,South,182,1.0,6.0,68,0.00,,,0.00,,2013-02-05 11:42:00,
2013-02-05 06:52:00,33.0,23.0,29.87,SW,216,2.0,6.0,67,0.00,,,0.00,,2013-02-05 11:52:00,
2013-02-05 07:02:00,33.0,23.0,29.87,ESE,107,2.0,7.0,66,0.00,,,0.00,,2013-02-05 12:02:00,
2013-02-05 07:12:00,33.0,23.0,29.87,ESE,107,2.0,7.0,66,0.00,,,0.00,,2013-02-05 12:12:00,
2013-02-05 07:22:00,33.0,23.0,29.88,ESE,105,1.0,3.0,66,0.00,,,0.00,,2013-02-05 12:22:00,
2013-02-05 07:32:00,33.0,23.0,29.87,ESE,113,3.0,4.0,67,0.00,,,0.00,,2013-02-05 12:32:00,
2013-02-05 07:42:00,33.0,23.0,29.87,ESE,113,3.0,4.0,67,0.00,,,0.00,,2013-02-05 12:42:00,
2013-02-05 07:52:00,34.0,24.0,29.88,West,270,1.0,6.0,67,0.00,,,0.00,,2013-02-05 12:52:00,
2013-02-05 08:02:00,34.0,24.0,29.88,WNW,291,0.0,5.0,66,0.00,,,0.00,,2013-02-05 13:02:00,
2013-02-05 08:12:00,34.0,24.0,29.88,WNW,291,0.0,5.0,66,0.00,,,0.00,,2013-02-05 13:12:00,
2013-02-05 08:22:00,34.0,23.0,29.88,WNW,292,2.0,4.0,65,0.00,,,0.00,,2013-02-05 13:22:00,
2013-02-05 08:32:00,34.0,23.0,29.88,SW,225,1.0,3.0,65,0.00,,,0.00,,2013-02-05 13:32:00,
2013-02-05 08:42:00,34.0,23.0,29.88,SW,225,1.0,3.0,65,0.00,,,0.00,,2013-02-05 13:42:00,
2013-02-05 08:52:00,34.0,23.0,29.89,SE,144,3.0,4.0,65,0.00,,,0.00,,2013-02-05 13:52:00,
2013-02-05 09:01:00,35.0,24.0,29.89,SSW,196,1.0,4.0,63,0.00,,,0.00,,2013-02-05 14:01:00,
2013-02-05 09:12:00,35.0,24.0,29.89,SSW,196,1.0,4.0,63,0.00,,,0.00,,2013-02-05 14:12:00,
2013-02-05 09:21:00,37.0,26.0,29.89,SSW,199,2.0,6.0,63,0.00,,,0.00,,2013-02-05 14:21:00,
2013-02-05 09:32:00,39.0,27.0,29.89,SSW,193,3.0,7.0,61,0.00,,,0.00,,2013-02-05 14:32:00,
2013-02-05 09:42:00,39.0,27.0,29.89,SSW,193,3.0,7.0,61,0.00,,,0.00,,2013-02-05 14:42:00,
2013-02-05 09:52:00,41.0,29.0,29.90,South,187,6.0,10.0,61,0.00,,,0.00,,2013-02-05 14:52:00,
2013-02-05 10:02:00,42.0,30.0,29.89,SSW,207,4.0,10.0,61,0.00,,,0.00,,2013-02-05 15:02:00,
2013-02-05 10:11:00,42.0,30.0,29.89,SSW,207,4.0,10.0,61,0.00,,,0.00,,2013-02-05 15:11:00,
2013-02-05 10:21:00,43.0,30.0,29.90,SW,217,4.0,10.0,61,0.00,,,0.00,,2013-02-05 15:21:00,
2013-02-05 10:32:00,43.0,30.0,29.90,SW,219,4.0,8.0,61,0.00,,,0.00,,2013-02-05 15:32:00,
2013-02-05 10:42:00,43.0,30.0,29.90,SW,219,4.0,8.0,61,0.00,,,0.00,,2013-02-05 15:42:00,
2013-02-05 10:52:00,44.0,31.0,29.90,SSW,206,4.0,9.0,61,0.00,,,0.00,,2013-02-05 15:52:00,
2013-02-05 11:01:00,46.0,32.0,29.90,SSW,201,4.0,10.0,58,0.00,,,0.00,,2013-02-05 16:01:00,
2013-02-05 11:12:00,46.0,32.0,29.90,SSW,201,4.0,10.0,58,0.00,,,0.00,,2013-02-05 16:12:00,
2013-02-05 11:22:00,47.0,33.0,29.91,SW,225,5.0,13.0,57,0.00,,,0.00,,2013-02-05 16:22:00,
2013-02-05 11:32:00,47.0,33.0,29.91,SW,225,3.0,8.0,57,0.00,,,0.00,,2013-02-05 16:32:00,
2013-02-05 11:42:00,47.0,33.0,29.91,SW,225,3.0,8.0,57,0.00,,,0.00,,2013-02-05 16:42:00,
2013-02-05 11:52:00,48.0,34.0,29.92,SW,222,4.0,9.0,57,0.00,,,0.00,,2013-02-05 16:52:00,
2013-02-05 12:01:00,49.0,34.0,29.92,SW,232,5.0,10.0,56,0.00,,,0.00,,2013-02-05 17:01:00,
2013-02-05 12:11:00,49.0,34.0,29.92,SW,232,5.0,10.0,56,0.00,,,0.00,,2013-02-05 17:11:00,
2013-02-05 12:22:00,50.0,34.0,29.93,South,179,5.0,12.0,54,0.00,,,0.00,,2013-02-05 17:22:00,
2013-02-05 12:32:00,50.0,35.0,29.93,SW,224,8.0,16.0,56,0.00,,,0.00,,2013-02-05 17:32:00,
2013-02-05 12:42:00,50.0,35.0,29.93,SW,224,8.0,16.0,56,0.00,,,0.00,,2013-02-05 17:42:00,
2013-02-05 12:52:00,49.0,34.0,29.91,WNW,296,3.0,17.0,56,0.00,,,0.00,,2013-02-05 17:52:00,
2013-02-05 13:02:00,48.0,34.0,29.90,SSE,151,2.0,11.0,57,0.00,,,0.00,,2013-02-05 18:02:00,
2013-02-05 13:11:00,48.0,34.0,29.90,SSE,151,2.0,11.0,57,0.00,,,0.00,,2013-02-05 18:11:00,
2013-02-05 13:22:00,49.0,34.0,29.90,SW,236,4.0,11.0,57,0.00,,,0.00,,2013-02-05 18:22:00,
2013-02-05 13:32:00,50.0,35.0,29.88,SSW,201,2.0,10.0,56,0.00,,,0.00,,2013-02-05 18:32:00,
2013-02-05 13:42:00,50.0,35.0,29.88,SSW,201,2.0,10.0,56,0.00,,,0.00,,2013-02-05 18:42:00,
2013-02-05 13:52:00,50.0,34.0,29.88,South,185,3.0,11.0,55,0.00,,,0.00,,2013-02-05 18:52:00,
2013-02-05 14:02:00,51.0,34.0,29.88,SW,227,5.0,8.0,52,0.00,,,0.00,,2013-02-05 19:02:00,
2013-02-05 14:11:00,51.0,34.0,29.88,SW,227,5.0,8.0,52,0.00,,,0.00,,2013-02-05 19:11:00,
2013-02-05 14:22:00,52.0,34.0,29.88,SW,217,6.0,14.0,50,0.00,,,0.00,,2013-02-05 19:22:00,
2013-02-05 14:32:00,52.0,33.0,29.87,WSW,240,2.0,13.0,48,0.00,,,0.00,,2013-02-05 19:32:00,
2013-02-05 14:42:00,52.0,33.0,29.87,WSW,240,2.0,13.0,48,0.00,,,0.00,,2013-02-05 19:42:00,
2013-02-05 14:52:00,52.0,33.0,29.88,WSW,258,3.0,11.0,48,0.00,,,0.00,,2013-02-05 19:52:00,
2013-02-05 15:02:00,51.0,31.0,29.88,SW,222,2.0,13.0,47,0.00,,,0.00,,2013-02-05 20:02:00,
2013-02-05 15:11:00,51.0,31.0,29.88,SW,222,2.0,13.0,47,0.00,,,0.00,,2013-02-05 20:11:00,
2013-02-05 15:21:00,51.0,32.0,29.88,WSW,257,3.0,10.0,48,0.00,,,0.00,,2013-02-05 20:21:00,
2013-02-05 15:32:00,52.0,33.0,29.88,SSW,211,3.0,16.0,48,0.00,,,0.00,,2013-02-05 20:32:00,
2013-02-05 15:42:00,52.0,33.0,29.88,SSW,211,3.0,16.0,48,0.00,,,0.00,,2013-02-05 20:42:00,
2013-02-05 15:52:00,52.0,32.0,29.88,WSW,238,5.0,9.0,47,0.00,,,0.00,,2013-02-05 20:52:00,
2013-02-05 16:02:00,52.0,31.0,29.88,SSW,213,3.0,11.0,45,0.00,,,0.00,,2013-02-05 21:02:00,
2013-02-05 16:11:00,52.0,31.0,29.88,SSW,213,3.0,11.0,45,0.00,,,0.00,,2013-02-05 21:11:00,
2013-02-05 16:22:00,52.0,32.0,29.88,SW,236,5.0,8.0,46,0.00,,,0.00,,2013-02-05 21:22:00,
2013-02-05 16:32:00,52.0,31.0,29.88,WSW,245,4.0,8.0,45,0.00,,,0.00,,2013-02-05 21:32:00,
2013-02-05 16:42:00,52.0,31.0,29.88,WSW,245,4.0,8.0,45,0.00,,,0.00,,2013-02-05 21:42:00,
2013-02-05 16:52:00,52.0,29.0,29.89,SW,215,4.0,11.0,41,0.00,,,0.00,,2013-02-05 21:52:00,
2013-02-05 17:02:00,51.0,28.0,29.88,SSE,159,2.0,7.0,41,0.00,,,0.00,,2013-02-05 22:02:00,
2013-02-05 17:11:00,51.0,28.0,29.88,SSE,159,2.0,7.0,41,0.00,,,0.00,,2013-02-05 22:11:00,
2013-02-05 17:22:00,51.0,28.0,29.90,WNW,287,4.0,10.0,41,0.00,,,0.00,,2013-02-05 22:22:00,
2013-02-05 17:32:00,50.0,28.0,29.90,SSW,196,3.0,8.0,42,0.00,,,0.00,,2013-02-05 22:32:00,
2013-02-05 17:42:00,50.0,28.0,29.90,SSW,196,3.0,8.0,42,0.00,,,0.00,,2013-02-05 22:42:00,
2013-02-05 17:51:00,50.0,28.0,29.89,SW,217,4.0,12.0,43,0.00,,,0.00,,2013-02-05 22:51:00,
2013-02-05 18:02:00,49.0,28.0,29.89,WSW,246,2.0,9.0,44,0.00,,,0.00,,2013-02-05 23:02:00,
2013-02-05 18:11:00,49.0,28.0,29.89,WSW,246,2.0,9.0,44,0.00,,,0.00,,2013-02-05 23:11:00,
2013-02-05 18:22:00,48.0,27.0,29.89,WSW,255,0.0,8.0,44,0.00,,,0.00,,2013-02-05 23:22:00,
2013-02-05 18:32:00,47.0,27.0,29.90,SSW,204,3.0,6.0,45,0.00,,,0.00,,2013-02-05 23:32:00,
2013-02-05 18:42:00,47.0,27.0,29.90,SSW,204,3.0,6.0,45,0.00,,,0.00,,2013-02-05 23:42:00,
2013-02-05 18:52:00,47.0,27.0,29.90,SSW,197,3.0,10.0,46,0.00,,,0.00,,2013-02-05 23:52:00,
2013-02-05 19:02:00,46.0,26.0,29.91,SW,225,1.0,4.0,46,0.00,,,0.00,,2013-02-06 00:02:00,
2013-02-05 19:12:00,46.0,26.0,29.91,SW,225,1.0,4.0,46,0.00,,,0.00,,2013-02-06 00:12:00,
2013-02-05 19:22:00,46.0,28.0,29.91,SW,231,0.0,4.0,50,0.00,,,0.00,,2013-02-06 00:22:00,
2013-02-05 19:32:00,43.0,27.0,29.91,SW,229,1.0,2.0,53,0.00,,,0.00,,2013-02-06 00:32:00,
2013-02-05 19:42:00,43.0,27.0,29.91,SW,229,1.0,2.0,53,0.00,,,0.00,,2013-02-06 00:42:00,
2013-02-05 19:52:00,42.0,27.0,29.91,SW,229,0.0,2.0,55,0.00,,,0.00,,2013-02-06 00:52:00,
2013-02-05 20:02:00,41.0,27.0,29.92,SW,229,0.0,2.0,58,0.00,,,0.00,,2013-02-06 01:02:00,
2013-02-05 20:12:00,41.0,27.0,29.92,SW,229,0.0,2.0,58,0.00,,,0.00,,2013-02-06 01:12:00,
2013-02-05 20:22:00,41.0,28.0,29.92,SW,230,0.0,3.0,59,0.00,,,0.00,,2013-02-06 01:22:00,
2013-02-05 20:32:00,39.0,27.0,29.93,SW,230,2.0,4.0,62,0.00,,,0.00,,2013-02-06 01:32:00,
2013-02-05 20:42:00,39.0,27.0,29.93,SW,230,2.0,4.0,62,0.00,,,0.00,,2013-02-06 01:42:00,
2013-02-05 20:52:00,39.0,27.0,29.93,SW,230,0.0,1.0,63,0.00,,,0.00,,2013-02-06 01:52:00,
2013-02-05 21:02:00,38.0,27.0,29.93,NW,326,0.0,3.0,65,0.00,,,0.00,,2013-02-06 02:02:00,
2013-02-05 21:12:00,38.0,27.0,29.93,NW,326,0.0,3.0,65,0.00,,,0.00,,2013-02-06 02:12:00,
2013-02-05 21:22:00,38.0,28.0,29.93,NW,326,0.0,1.0,66,0.00,,,0.00,,2013-02-06 02:22:00,
2013-02-05 21:32:00,37.0,27.0,29.93,ENE,70,0.0,3.0,68,0.00,,,0.00,,2013-02-06 02:32:00,
2013-02-05 21:42:00,37.0,27.0,29.93,ENE,70,0.0,3.0,68,0.00,,,0.00,,2013-02-06 02:42:00,
2013-02-05 21:52:00,36.0,27.0,29.93,WNW,295,0.0,4.0,69,0.00,,,0.00,,2013-02-06 02:52:00,
2013-02-05 22:03:00,36.0,27.0,29.94,ESE,112,0.0,3.0,70,0.00,,,0.00,,2013-02-06 03:03:00,
2013-02-05 22:12:00,36.0,27.0,29.94,ESE,112,0.0,3.0,70,0.00,,,0.00,,2013-02-06 03:12:00,
2013-02-05 22:22:00,36.0,28.0,29.94,SSW,204,3.0,4.0,72,0.00,,,0.00,,2013-02-06 03:22:00,
2013-02-05 22:32:00,37.0,27.0,29.95,West,273,2.0,7.0,68,0.00,,,0.00,,2013-02-06 03:32:00,
2013-02-05 22:42:00,37.0,27.0,29.95,West,273,2.0,7.0,68,0.00,,,0.00,,2013-02-06 03:42:00,
2013-02-05 22:52:00,39.0,27.0,29.95,SW,229,2.0,6.0,63,0.00,,,0.00,,2013-02-06 03:52:00,
2013-02-05 23:02:00,43.0,29.0,29.95,SSW,195,3.0,9.0,57,0.00,,,0.00,,2013-02-06 04:02:00,
2013-02-05 23:11:00,43.0,29.0,29.95,SSW,195,3.0,9.0,57,0.00,,,0.00,,2013-02-06 04:11:00,
2013-02-05 23:22:00,42.0,28.0,29.94,NW,325,2.0,9.0,57,0.00,,,0.00,,2013-02-06 04:22:00,
2013-02-05 23:32:00,43.0,28.0,29.94,SSW,207,5.0,10.0,55,0.00,,,0.00,,2013-02-06 04:32:00,
2013-02-05 23:42:00,43.0,28.0,29.94,SSW,207,5.0,10.0,55,0.00,,,0.00,,2013-02-06 04:42:00,
2013-02-05 23:52:00,44.0,29.0,29.94,SW,222,4.0,14.0,56,0.00,,,0.00,,2013-02-06 04:52:00,